createdAt,value
2023-09-26T00:02:26.744Z,100456.53
2023-09-26T00:04:53.470Z,100458.34
2023-09-26T00:07:20.034Z,100460.72
2023-09-26T00:09:46.760Z,100461.63
2023-09-26T00:12:13.511Z,100459.81
2023-09-26T00:14:40.083Z,100456.59
2023-09-26T00:17:06.953Z,100456.84
2023-09-26T00:19:33.551Z,100450.00
2023-09-26T00:22:00.040Z,100452.75
2023-09-26T00:24:26.654Z,100464.75
2023-09-26T00:26:53.528Z,100455.88
2023-09-26T00:29:20.013Z,100457.13
2023-09-26T00:31:46.618Z,100454.91
2023-09-26T00:34:13.292Z,100455.53
2023-09-26T00:36:40.165Z,100454.56
2023-09-26T00:39:06.772Z,100453.03
2023-09-26T00:41:34.519Z,100449.69
2023-09-26T00:44:01.051Z,100449.75
2023-09-26T00:46:29.207Z,100452.81
2023-09-26T00:48:56.996Z,100451.16
2023-09-26T00:51:23.511Z,100444.38
2023-09-26T00:53:50.307Z,100441.38
2023-09-26T00:56:17.421Z,100446.03
2023-09-26T00:58:44.699Z,100447.63
2023-09-26T01:01:11.625Z,100453.78
2023-09-26T01:03:38.683Z,100441.53
2023-09-26T01:06:06.436Z,100445.63
2023-09-26T01:08:33.264Z,100438.38
2023-09-26T01:10:59.932Z,100441.53
2023-09-26T01:13:26.592Z,100450.31
2023-09-26T01:15:53.538Z,100435.66
2023-09-26T01:18:24.536Z,100446.38
2023-09-26T01:20:52.099Z,100451.06
2023-09-26T01:23:22.872Z,100449.19
2023-09-26T01:25:49.455Z,100442.56
2023-09-26T01:28:17.546Z,100451.06
2023-09-26T01:30:44.260Z,100449.75
2023-09-26T01:33:17.338Z,100438.38
2023-09-26T01:35:44.683Z,100442.50
2023-09-26T01:38:11.376Z,100435.38
2023-09-26T01:40:37.850Z,100444.66
2023-09-26T01:43:04.754Z,100441.66
2023-09-26T01:45:31.298Z,100442.16
2023-09-26T01:47:59.137Z,100443.34
2023-09-26T01:50:26.180Z,100443.00
2023-09-26T01:52:53.599Z,100444.25
2023-09-26T01:55:21.857Z,100447.59
2023-09-26T01:57:49.911Z,100445.50
2023-09-26T02:00:18.424Z,100444.66
2023-09-26T02:02:49.719Z,100445.16
2023-09-26T02:05:18.911Z,100448.97
2023-09-26T02:07:47.052Z,100444.41
2023-09-26T02:10:14.130Z,100445.25
2023-09-26T02:12:43.494Z,100443.53
2023-09-26T02:15:13.084Z,100442.19
2023-09-26T02:17:41.179Z,100436.34
2023-09-26T02:20:16.448Z,100444.97
2023-09-26T02:22:45.454Z,100441.69
2023-09-26T02:25:13.305Z,100445.56
2023-09-26T02:27:40.807Z,100436.16
2023-09-26T02:30:09.978Z,100449.59
2023-09-26T02:32:36.899Z,100439.88
2023-09-26T02:35:05.092Z,100448.13
2023-09-26T02:37:31.641Z,100442.19
2023-09-26T02:39:58.298Z,100453.41
2023-09-26T02:42:24.843Z,100444.91
2023-09-26T02:44:51.319Z,100451.00
2023-09-26T02:47:17.831Z,100442.69
2023-09-26T02:49:44.525Z,100450.09
2023-09-26T02:52:11.059Z,100454.59
2023-09-26T02:54:37.618Z,100455.22
2023-09-26T02:57:06.906Z,100449.53
2023-09-26T02:59:35.255Z,100451.41
2023-09-26T03:02:01.857Z,100446.16
2023-09-26T03:04:28.443Z,100448.28
2023-09-26T03:06:55.046Z,100450.28
2023-09-26T03:09:21.576Z,100451.16
2023-09-26T03:11:48.032Z,100444.91
2023-09-26T03:14:14.536Z,100449.34
2023-09-26T03:16:41.407Z,100445.63
2023-09-26T03:19:08.453Z,100443.31
2023-09-26T03:21:35.051Z,100448.28
2023-09-26T03:24:01.687Z,100445.72
2023-09-26T03:26:28.650Z,100448.03
2023-09-26T03:28:55.334Z,100455.69
2023-09-26T03:31:22.190Z,100450.09
2023-09-26T03:33:51.319Z,100444.16
2023-09-26T03:36:19.011Z,100450.44
2023-09-26T03:38:45.544Z,100452.88
2023-09-26T03:41:12.083Z,100454.47
2023-09-26T03:43:38.598Z,100457.34
2023-09-26T03:46:08.461Z,100450.09
2023-09-26T03:48:37.130Z,100452.72
2023-09-26T03:51:14.826Z,100452.91
2023-09-26T03:53:42.581Z,100458.75
2023-09-26T03:56:09.583Z,100459.47
2023-09-26T03:58:36.887Z,100457.03
2023-09-26T04:01:17.110Z,100456.03
2023-09-26T04:03:50.676Z,100446.88
2023-09-26T04:06:17.529Z,100450.25
2023-09-26T04:08:44.198Z,100453.03
2023-09-26T04:11:17.992Z,100452.25
2023-09-26T04:13:45.445Z,100447.44
2023-09-26T04:16:12.320Z,100448.34
2023-09-26T04:18:39.007Z,100455.78
2023-09-26T04:21:11.139Z,100462.94
2023-09-26T04:23:38.923Z,100452.41
2023-09-26T04:26:15.868Z,100450.59
2023-09-26T04:28:47.040Z,100457.09
2023-09-26T04:31:18.367Z,100460.91
2023-09-26T04:33:46.001Z,100462.53
2023-09-26T04:36:12.850Z,100458.50
2023-09-26T04:38:39.885Z,100467.56
2023-09-26T04:41:06.606Z,100469.22
2023-09-26T04:43:33.589Z,100467.56
2023-09-26T04:46:00.891Z,100469.56
2023-09-26T04:48:27.494Z,100477.72
2023-09-26T04:50:55.817Z,100476.22
2023-09-26T04:53:23.378Z,100475.63
2023-09-26T04:55:50.431Z,100476.41
2023-09-26T04:58:17.184Z,100484.56
2023-09-26T05:00:43.708Z,100470.88
2023-09-26T05:03:10.420Z,100487.34
2023-09-26T05:05:37.035Z,100482.56
2023-09-26T05:08:03.714Z,100489.09
2023-09-26T05:10:30.268Z,100477.72
2023-09-26T05:13:00.174Z,100473.69
2023-09-26T05:15:28.312Z,100473.91
2023-09-26T05:17:54.792Z,100481.41
2023-09-26T05:20:21.438Z,100477.53
2023-09-26T05:22:49.390Z,100476.31
2023-09-26T05:25:16.336Z,100486.38
2023-09-26T05:27:44.670Z,100479.94
2023-09-26T05:30:15.125Z,100484.06
2023-09-26T05:32:42.689Z,100480.91
2023-09-26T05:35:10.840Z,100472.66
2023-09-26T05:37:38.712Z,100483.72
2023-09-26T05:40:08.065Z,100487.53
2023-09-26T05:42:36.125Z,100485.19
2023-09-26T05:45:04.590Z,100489.16
2023-09-26T05:47:31.494Z,100485.78
2023-09-26T05:49:58.063Z,100488.94
2023-09-26T05:52:24.897Z,100494.69
2023-09-26T05:54:51.626Z,100496.91
2023-09-26T05:57:19.575Z,100488.69
2023-09-26T05:59:46.134Z,100490.22
2023-09-26T06:02:17.553Z,100481.66
2023-09-26T06:04:45.801Z,100492.13
2023-09-26T06:07:13.112Z,100492.53
2023-09-26T06:09:46.648Z,100487.03
2023-09-26T06:12:13.407Z,100485.34
2023-09-26T06:14:40.710Z,100493.03
2023-09-26T06:17:08.432Z,100492.19
2023-09-26T06:19:35.039Z,100493.50
2023-09-26T06:22:01.578Z,100485.00
2023-09-26T06:24:28.475Z,100489.38
2023-09-26T06:26:54.990Z,100485.84
2023-09-26T06:29:21.538Z,100489.13
2023-09-26T06:31:48.035Z,100484.25
2023-09-26T06:34:14.918Z,100483.66
2023-09-26T06:36:41.868Z,100482.63
2023-09-26T06:39:10.490Z,100488.63
2023-09-26T06:41:37.059Z,100484.53
2023-09-26T06:44:04.283Z,100484.38
2023-09-26T06:46:30.839Z,100484.53
2023-09-26T06:48:57.342Z,100485.66
2023-09-26T06:51:24.233Z,100485.25
2023-09-26T06:53:51.068Z,100484.94
2023-09-26T06:56:17.787Z,100481.00
2023-09-26T06:58:44.383Z,100484.31
2023-09-26T07:01:15.586Z,100487.34
2023-09-26T07:03:42.818Z,100491.34
2023-09-26T07:06:14.311Z,100494.59
2023-09-26T07:08:42.951Z,100498.81
2023-09-26T07:11:10.944Z,100490.53
2023-09-26T07:13:48.758Z,100494.91
2023-09-26T07:16:17.074Z,100488.13
2023-09-26T07:18:43.847Z,100487.69
2023-09-26T07:21:10.978Z,100483.72
2023-09-26T07:23:38.303Z,100487.84
2023-09-26T07:26:16.803Z,100489.50
2023-09-26T07:28:45.056Z,100485.50
2023-09-26T07:31:13.081Z,100501.09
2023-09-26T07:33:40.199Z,100495.84
2023-09-26T07:36:07.769Z,100500.41
2023-09-26T07:38:34.679Z,100502.78
2023-09-26T07:41:01.902Z,100512.59
2023-09-26T07:43:34.139Z,100512.69
2023-09-26T07:46:09.007Z,100514.41
2023-09-26T07:48:36.925Z,100517.03
2023-09-26T07:51:04.591Z,100522.22
2023-09-26T07:53:31.235Z,100527.78
2023-09-26T07:55:58.067Z,100510.41
2023-09-26T07:58:25.180Z,100533.78
2023-09-26T08:00:54.761Z,100523.69
2023-09-26T08:03:22.019Z,100526.66
2023-09-26T08:05:48.628Z,100528.03
2023-09-26T08:08:15.112Z,100524.09
2023-09-26T08:10:41.965Z,100526.66
2023-09-26T08:13:09.410Z,100526.63
2023-09-26T08:15:36.340Z,100522.91
2023-09-26T08:18:04.224Z,100522.03
2023-09-26T08:20:31.499Z,100526.72
2023-09-26T08:22:58.481Z,100523.47
2023-09-26T08:25:25.441Z,100519.22
2023-09-26T08:27:52.026Z,100517.88
2023-09-26T08:30:18.892Z,100524.72
2023-09-26T08:32:45.582Z,100524.66
2023-09-26T08:35:12.673Z,100528.00
2023-09-26T08:37:41.416Z,100515.03
2023-09-26T08:40:12.341Z,100524.50
2023-09-26T08:42:42.130Z,100528.41
2023-09-26T08:45:09.450Z,100522.13
2023-09-26T08:47:40.887Z,100517.53
2023-09-26T08:50:08.281Z,100521.13
2023-09-26T08:52:35.480Z,100515.41
2023-09-26T08:55:03.657Z,100511.63
2023-09-26T08:57:31.668Z,100509.47
2023-09-26T09:00:01.978Z,100514.38
2023-09-26T09:02:30.669Z,100513.13
2023-09-26T09:04:57.137Z,100512.56
2023-09-26T09:07:23.969Z,100515.56
2023-09-26T09:10:05.974Z,100507.88
2023-09-26T09:12:32.549Z,100506.81
2023-09-26T09:14:59.110Z,100503.00
2023-09-26T09:17:25.871Z,100502.41
2023-09-26T09:19:53.854Z,100509.66
2023-09-26T09:22:23.022Z,100504.19
2023-09-26T09:24:55.125Z,100511.84
2023-09-26T09:27:35.946Z,100502.91
2023-09-26T09:30:13.359Z,100505.41
2023-09-26T09:32:44.019Z,100501.28
2023-09-26T09:35:12.089Z,100500.50
2023-09-26T09:37:38.776Z,100502.69
2023-09-26T09:40:09.855Z,100493.69
2023-09-26T09:42:37.108Z,100479.47
2023-09-26T09:45:05.540Z,100479.50
2023-09-26T09:47:37.513Z,100479.19
2023-09-26T09:50:05.955Z,100480.31
2023-09-26T09:52:35.161Z,100474.63
2023-09-26T09:55:06.558Z,100471.06
2023-09-26T09:57:36.969Z,100466.94
2023-09-26T10:00:07.016Z,100464.50
2023-09-26T10:02:35.474Z,100465.56
2023-09-26T10:05:07.101Z,100461.75
2023-09-26T10:07:34.224Z,100459.00
2023-09-26T10:10:01.897Z,100455.72
2023-09-26T10:12:33.768Z,100444.72
2023-09-26T10:15:01.944Z,100447.75
2023-09-26T10:17:28.697Z,100441.97
2023-09-26T10:22:34.148Z,100438.66
2023-09-26T10:25:03.997Z,100438.69
2023-09-26T10:27:47.372Z,100446.31
2023-09-26T10:30:19.655Z,100440.50
2023-09-26T10:32:47.385Z,100435.28
2023-09-26T10:35:19.343Z,100428.13
2023-09-26T10:38:02.022Z,100421.81
2023-09-26T10:40:28.717Z,100426.94
2023-09-26T10:43:28.000Z,100416.22
2023-09-26T10:45:48.910Z,100417.34
2023-09-26T10:51:10.596Z,100425.28
2023-09-26T10:53:37.852Z,100414.28
2023-09-26T10:56:04.911Z,100413.41
2023-09-26T10:58:34.729Z,100404.09
2023-09-26T11:01:01.804Z,100406.81
2023-09-26T11:03:30.426Z,100417.16
2023-09-26T11:05:57.623Z,100416.25
2023-09-26T11:08:24.723Z,100408.78
2023-09-26T11:10:51.961Z,100399.13
2023-09-26T11:13:18.740Z,100399.09
2023-09-26T11:15:47.994Z,100397.91
2023-09-26T11:18:14.769Z,100403.63
2023-09-26T11:20:51.071Z,100393.44
2023-09-26T11:23:40.421Z,100386.53
2023-09-26T11:26:08.081Z,100392.06
2023-09-26T11:28:36.089Z,100391.53
2023-09-26T11:31:02.998Z,100379.13
2023-09-26T11:33:29.981Z,100387.88
2023-09-26T11:35:56.731Z,100388.59
2023-09-26T11:38:23.379Z,100378.91
2023-09-26T11:40:50.505Z,100391.56
2023-09-26T11:43:17.114Z,100386.88
2023-09-26T11:45:44.255Z,100386.56
2023-09-26T11:48:13.924Z,100372.84
2023-09-26T11:50:41.484Z,100375.53
2023-09-26T11:53:08.525Z,100375.78
2023-09-26T11:55:36.978Z,100372.50
2023-09-26T11:58:04.372Z,100363.44
2023-09-26T12:00:31.360Z,100363.69
2023-09-26T12:02:58.401Z,100354.50
2023-09-26T12:05:25.142Z,100362.59
2023-09-26T12:07:51.787Z,100355.56
2023-09-26T12:10:19.704Z,100351.41
2023-09-26T12:12:47.420Z,100345.47
2023-09-26T12:15:26.849Z,100343.75
2023-09-26T12:17:55.210Z,100338.69
2023-09-26T12:20:23.830Z,100342.94
2023-09-26T12:22:53.760Z,100337.59
2023-09-26T12:25:23.281Z,100337.06
2023-09-26T12:27:53.910Z,100329.25
2023-09-26T12:30:21.883Z,100327.25
2023-09-26T12:32:50.796Z,100319.28
2023-09-26T12:35:18.217Z,100314.84
2023-09-26T12:37:46.893Z,100313.13
2023-09-26T12:40:14.345Z,100321.91
2023-09-26T12:42:44.620Z,100320.50
2023-09-26T12:45:11.749Z,100319.44
2023-09-26T12:47:38.495Z,100318.94
2023-09-26T12:50:10.159Z,100316.09
2023-09-26T12:52:39.004Z,100322.66
2023-09-26T12:55:06.080Z,100318.16
2023-09-26T12:57:32.842Z,100315.94
2023-09-26T12:59:59.576Z,100315.72
2023-09-26T13:02:26.371Z,100311.66
2023-09-26T13:04:54.735Z,100303.91
2023-09-26T13:07:22.542Z,100313.44
2023-09-26T13:09:49.264Z,100308.75
2023-09-26T13:12:15.828Z,100305.19
2023-09-26T13:14:42.344Z,100301.25
2023-09-26T13:17:13.339Z,100299.22
2023-09-26T13:19:44.330Z,100298.00
2023-09-26T13:22:15.736Z,100295.56
2023-09-26T13:24:43.166Z,100290.06
2023-09-26T13:27:09.942Z,100301.75
2023-09-26T13:32:04.242Z,100298.81
2023-09-26T13:34:31.917Z,100297.66
2023-09-26T13:36:58.788Z,100290.66
2023-09-26T13:39:26.095Z,100293.41
2023-09-26T13:41:52.865Z,100290.97
2023-09-26T13:44:19.468Z,100292.81
2023-09-26T13:46:46.110Z,100293.81
2023-09-26T13:49:12.946Z,100285.28
2023-09-26T13:51:39.489Z,100286.50
2023-09-26T13:54:07.542Z,100286.69
2023-09-26T13:56:34.312Z,100288.44
2023-09-26T13:59:00.890Z,100285.91
2023-09-26T14:01:27.974Z,100288.16
2023-09-26T14:03:54.597Z,100289.13
2023-09-26T14:06:21.424Z,100280.16
2023-09-26T14:08:48.205Z,100279.94
2023-09-26T14:11:15.226Z,100273.72
2023-09-26T14:13:43.555Z,100277.78
2023-09-26T14:16:10.049Z,100271.97
2023-09-26T14:18:37.791Z,100268.31
2023-09-26T14:21:08.682Z,100272.06
2023-09-26T14:23:35.354Z,100269.31
2023-09-26T14:26:02.010Z,100269.97
2023-09-26T14:28:28.912Z,100266.59
2023-09-26T14:30:55.556Z,100266.88
2023-09-26T14:33:22.616Z,100272.56
2023-09-26T14:35:49.557Z,100275.03
2023-09-26T14:38:17.808Z,100275.94
2023-09-26T14:40:44.448Z,100276.47
2023-09-26T14:43:11.025Z,100268.94
2023-09-26T14:45:50.514Z,100268.03
2023-09-26T14:48:19.902Z,100268.41
2023-09-26T14:50:46.541Z,100279.31
2023-09-26T14:53:13.032Z,100267.53
2023-09-26T14:55:39.651Z,100267.22
2023-09-26T14:58:06.270Z,100265.78
2023-09-26T15:00:33.185Z,100262.53
2023-09-26T15:03:00.127Z,100261.19
2023-09-26T15:05:27.600Z,100261.78
2023-09-26T15:07:54.225Z,100263.00
2023-09-26T15:10:20.822Z,100260.69
2023-09-26T15:12:47.298Z,100266.34
2023-09-26T15:15:14.996Z,100264.41
2023-09-26T15:17:41.605Z,100265.59
2023-09-26T15:20:08.584Z,100268.66
2023-09-26T15:22:36.196Z,100269.50
2023-09-26T15:25:02.820Z,100261.84
2023-09-26T15:27:29.440Z,100261.31
2023-09-26T15:29:55.924Z,100263.63
2023-09-26T15:32:22.582Z,100264.91
2023-09-26T15:34:49.219Z,100261.34
2023-09-26T15:37:15.776Z,100261.09
2023-09-26T15:39:42.356Z,100261.94
2023-09-26T15:42:08.908Z,100266.09
2023-09-26T15:44:41.791Z,100270.16
2023-09-26T15:47:09.296Z,100262.41
2023-09-26T15:49:49.260Z,100258.41
2023-09-26T15:52:16.879Z,100255.13
2023-09-26T15:54:43.432Z,100252.97
2023-09-26T15:57:11.248Z,100268.19
2023-09-26T15:59:37.986Z,100264.13
2023-09-26T16:02:06.097Z,100268.34
2023-09-26T16:04:33.854Z,100267.88
2023-09-26T16:07:02.974Z,100267.41
2023-09-26T16:09:29.953Z,100272.97
2023-09-26T16:11:56.688Z,100264.38
2023-09-26T16:14:23.382Z,100267.16
2023-09-26T16:16:50.081Z,100277.09
2023-09-26T16:19:18.379Z,100279.50
2023-09-26T16:21:45.637Z,100273.06
2023-09-26T16:24:12.514Z,100274.75
2023-09-26T16:26:39.124Z,100267.13
2023-09-26T16:29:05.995Z,100273.84
2023-09-26T16:31:33.251Z,100273.88
2023-09-26T16:34:00.054Z,100270.34
2023-09-26T16:36:26.735Z,100284.09
2023-09-26T16:38:53.624Z,100280.66
2023-09-26T16:41:20.633Z,100282.38
2023-09-26T16:43:47.405Z,100281.56
2023-09-26T16:46:14.116Z,100283.81
2023-09-26T16:48:41.016Z,100282.72
2023-09-26T16:51:09.181Z,100280.59
2023-09-26T16:53:39.395Z,100297.00
2023-09-26T16:56:06.118Z,100292.91
2023-09-26T16:58:33.398Z,100289.59
2023-09-26T17:01:13.183Z,100295.88
2023-09-26T17:03:40.419Z,100293.16
2023-09-26T17:06:07.698Z,100303.81
2023-09-26T17:08:34.691Z,100292.31
2023-09-26T17:11:01.475Z,100296.41
2023-09-26T17:13:28.132Z,100293.41
2023-09-26T17:15:54.780Z,100295.03
2023-09-26T17:18:21.251Z,100308.44
2023-09-26T17:20:48.668Z,100303.81
2023-09-26T17:23:15.264Z,100306.84
2023-09-26T17:25:42.447Z,100310.69
2023-09-26T17:28:09.077Z,100313.69
2023-09-26T17:30:35.543Z,100309.06
2023-09-26T17:33:02.939Z,100327.09
2023-09-26T17:35:30.019Z,100322.44
2023-09-26T17:37:56.996Z,100318.34
2023-09-26T17:40:23.474Z,100314.78
2023-09-26T17:42:49.972Z,100318.06
2023-09-26T17:45:16.761Z,100327.63
2023-09-26T17:47:43.675Z,100324.78
2023-09-26T17:50:10.591Z,100323.97
2023-09-26T17:52:37.326Z,100330.22
2023-09-26T17:55:04.136Z,100328.88
2023-09-26T17:57:30.803Z,100328.56
2023-09-26T17:59:58.452Z,100329.16
2023-09-26T18:02:25.476Z,100326.44
2023-09-26T18:04:55.813Z,100330.53
2023-09-26T18:07:22.690Z,100323.69
2023-09-26T18:09:49.253Z,100332.44
2023-09-26T18:12:15.975Z,100331.38
2023-09-26T18:15:24.691Z,100328.63
2023-09-26T18:17:51.759Z,100330.53
2023-09-26T18:20:18.328Z,100321.53
2023-09-26T18:22:44.870Z,100328.59
2023-09-26T18:25:11.394Z,100330.69
2023-09-26T18:27:38.127Z,100340.97
2023-09-26T18:30:05.050Z,100340.13
2023-09-26T18:32:31.838Z,100335.53
2023-09-26T18:37:24.896Z,100335.75
2023-09-26T18:39:51.532Z,100341.81
2023-09-26T18:42:18.080Z,100346.97
2023-09-26T18:44:45.900Z,100346.94
2023-09-26T18:47:12.495Z,100351.00
2023-09-26T18:49:39.005Z,100340.56
2023-09-26T18:52:05.609Z,100351.66
2023-09-26T18:54:33.300Z,100357.66
2023-09-26T18:56:59.830Z,100358.34
2023-09-26T18:59:26.418Z,100362.91
2023-09-26T19:01:54.525Z,100360.97
2023-09-26T19:04:21.349Z,100365.19
2023-09-26T19:06:48.550Z,100363.97
2023-09-26T19:09:15.021Z,100366.75
2023-09-26T19:11:46.171Z,100364.03
2023-09-26T19:14:12.727Z,100372.59
2023-09-26T19:16:40.186Z,100366.31
2023-09-26T19:19:06.962Z,100367.75
2023-09-26T19:21:34.473Z,100371.97
2023-09-26T19:24:00.950Z,100370.97
2023-09-26T19:26:27.466Z,100373.69
2023-09-26T19:28:54.114Z,100374.59
2023-09-26T19:31:20.684Z,100373.44
2023-09-26T19:33:48.657Z,100378.34
2023-09-26T19:36:15.200Z,100375.63
2023-09-26T19:38:41.674Z,100386.53
2023-09-26T19:41:08.223Z,100391.28
2023-09-26T19:43:34.771Z,100382.97
2023-09-26T19:46:01.243Z,100381.69
2023-09-26T19:48:28.045Z,100372.34
2023-09-26T19:50:54.942Z,100377.41
2023-09-26T19:53:22.967Z,100377.38
2023-09-26T19:55:50.613Z,100387.38
2023-09-26T19:58:17.535Z,100375.81
2023-09-26T20:00:44.765Z,100380.50
2023-09-26T20:03:11.822Z,100376.63
2023-09-26T20:05:38.935Z,100369.16
2023-09-26T20:08:05.787Z,100379.00
2023-09-26T20:10:32.653Z,100377.66
2023-09-26T20:12:59.173Z,100373.78
2023-09-26T20:15:25.687Z,100389.91
2023-09-26T20:17:52.470Z,100387.94
2023-09-26T20:20:19.611Z,100386.03
2023-09-26T20:22:46.559Z,100380.53
2023-09-26T20:25:13.147Z,100377.59
2023-09-26T20:27:39.703Z,100374.88
2023-09-26T20:30:07.344Z,100383.41
2023-09-26T20:32:35.918Z,100387.31
2023-09-26T20:35:02.844Z,100371.34
2023-09-26T20:37:29.465Z,100386.13
2023-09-26T20:39:56.209Z,100388.56
2023-09-26T20:42:22.734Z,100381.13
2023-09-26T20:44:49.552Z,100382.34
2023-09-26T20:47:16.466Z,100387.34
2023-09-26T20:49:43.235Z,100387.84
2023-09-26T20:52:09.895Z,100381.59
2023-09-26T20:54:36.408Z,100388.81
2023-09-26T20:57:02.889Z,100386.91
2023-09-26T20:59:29.492Z,100384.53
2023-09-26T21:01:56.094Z,100390.19
2023-09-26T21:04:22.663Z,100390.91
2023-09-26T21:06:50.444Z,100388.41
2023-09-26T21:09:17.040Z,100385.09
2023-09-26T21:11:43.586Z,100395.00
2023-09-26T21:14:10.222Z,100384.97
2023-09-26T21:16:36.869Z,100397.91
2023-09-26T21:19:03.617Z,100394.06
2023-09-26T21:21:30.728Z,100404.53
2023-09-26T21:23:57.566Z,100397.00
2023-09-26T21:26:24.516Z,100397.88
2023-09-26T21:28:52.317Z,100386.19
2023-09-26T21:31:19.531Z,100396.25
2023-09-26T21:33:46.210Z,100391.66
2023-09-26T21:36:13.329Z,100402.94
2023-09-26T21:38:39.822Z,100403.50
2023-09-26T21:41:06.538Z,100396.19
2023-09-26T21:43:33.298Z,100399.72
2023-09-26T21:46:01.287Z,100401.03
2023-09-26T21:48:27.996Z,100399.78
2023-09-26T21:50:54.604Z,100406.31
2023-09-26T21:53:21.228Z,100398.97
2023-09-26T21:55:47.962Z,100397.50
2023-09-26T21:58:14.532Z,100400.63
2023-09-26T22:00:41.726Z,100398.00
2023-09-26T22:03:08.358Z,100393.63
2023-09-26T22:05:35.009Z,100400.38
2023-09-26T22:08:02.395Z,100386.41
2023-09-26T22:10:29.764Z,100393.19
2023-09-26T22:12:57.199Z,100400.16
2023-09-26T22:15:24.399Z,100397.00
2023-09-26T22:17:51.398Z,100391.75
2023-09-26T22:20:19.839Z,100395.38
2023-09-26T22:22:47.393Z,100394.28
2023-09-26T22:25:15.838Z,100386.19
2023-09-26T22:27:42.951Z,100385.84
2023-09-26T22:30:11.025Z,100400.25
2023-09-26T22:32:38.286Z,100394.22
2023-09-26T22:35:05.321Z,100394.28
2023-09-26T22:37:33.732Z,100395.66
2023-09-26T22:40:00.241Z,100400.38
2023-09-26T22:42:26.965Z,100393.25
2023-09-26T22:44:55.047Z,100387.16
2023-09-26T22:47:21.750Z,100397.66
2023-09-26T22:49:48.524Z,100394.72
2023-09-26T22:52:15.390Z,100390.72
2023-09-26T22:54:41.917Z,100391.91
2023-09-26T22:57:08.568Z,100397.38
2023-09-26T22:59:35.099Z,100398.31
2023-09-26T23:02:01.647Z,100397.50
2023-09-26T23:04:28.274Z,100398.91
2023-09-26T23:06:54.744Z,100397.63
2023-09-26T23:09:21.236Z,100393.88
2023-09-26T23:11:48.428Z,100393.94
2023-09-26T23:14:15.069Z,100396.91
2023-09-26T23:16:41.729Z,100400.00
2023-09-26T23:19:08.297Z,100395.16
2023-09-26T23:21:34.857Z,100396.97
2023-09-26T23:24:02.962Z,100397.88
2023-09-26T23:26:29.534Z,100391.84
2023-09-26T23:28:56.200Z,100393.50
2023-09-26T23:31:23.033Z,100395.91
2023-09-26T23:33:51.182Z,100388.38
2023-09-26T23:36:19.064Z,100395.84
2023-09-26T23:38:45.598Z,100390.94
2023-09-26T23:41:12.614Z,100396.22
2023-09-26T23:43:39.296Z,100397.78
2023-09-26T23:46:06.043Z,100395.31
2023-09-26T23:48:32.773Z,100389.97
2023-09-26T23:51:00.105Z,100393.50
2023-09-26T23:53:27.700Z,100388.63
2023-09-26T23:55:54.499Z,100389.53
2023-09-26T23:58:21.389Z,100393.41
